sensor_id;sensor_type;location;lat;lon;timestamp;P1;durP1;ratioP1;P2;durP2;ratioP2
23617;SDS011;18207;32.078;34.818;2022-12-13T00:00:02;4.82;;;4.15;;
23617;SDS011;18207;32.078;34.818;2022-12-13T00:02:36;5.70;;;4.45;;
23617;SDS011;18207;32.078;34.818;2022-12-13T00:05:06;4.50;;;4.10;;
23617;SDS011;18207;32.078;34.818;2022-12-13T00:07:39;5.50;;;4.10;;
23617;SDS011;18207;32.078;34.818;2022-12-13T00:10:10;4.63;;;3.83;;
23617;SDS011;18207;32.078;34.818;2022-12-13T00:12:40;4.20;;;3.80;;
23617;SDS011;18207;32.078;34.818;2022-12-13T00:15:10;4.85;;;3.88;;
23617;SDS011;18207;32.078;34.818;2022-12-13T00:17:41;4.13;;;3.55;;
23617;SDS011;18207;32.078;34.818;2022-12-13T00:20:12;5.72;;;3.75;;
23617;SDS011;18207;32.078;34.818;2022-12-13T00:22:45;5.28;;;3.78;;
23617;SDS011;18207;32.078;34.818;2022-12-13T00:25:16;4.28;;;3.88;;
23617;SDS011;18207;32.078;34.818;2022-12-13T00:27:50;4.22;;;3.65;;
23617;SDS011;18207;32.078;34.818;2022-12-13T00:30:20;5.43;;;4.22;;
23617;SDS011;18207;32.078;34.818;2022-12-13T00:32:51;4.10;;;3.70;;
23617;SDS011;18207;32.078;34.818;2022-12-13T00:35:22;4.78;;;4.10;;
23617;SDS011;18207;32.078;34.818;2022-12-13T00:37:54;4.88;;;3.95;;
23617;SDS011;18207;32.078;34.818;2022-12-13T00:40:26;5.22;;;4.03;;
23617;SDS011;18207;32.078;34.818;2022-12-13T00:42:57;4.82;;;3.90;;
23617;SDS011;18207;32.078;34.818;2022-12-13T00:45:28;4.10;;;3.30;;
23617;SDS011;18207;32.078;34.818;2022-12-13T00:47:58;4.88;;;3.90;;
23617;SDS011;18207;32.078;34.818;2022-12-13T00:50:28;4.68;;;4.03;;
23617;SDS011;18207;32.078;34.818;2022-12-13T00:53:01;4.55;;;3.78;;
23617;SDS011;18207;32.078;34.818;2022-12-13T00:55:32;4.85;;;3.75;;
23617;SDS011;18207;32.078;34.818;2022-12-13T00:58:02;4.93;;;4.15;;
23617;SDS011;18207;32.078;34.818;2022-12-13T01:00:32;4.60;;;3.80;;
23617;SDS011;18207;32.078;34.818;2022-12-13T01:03:03;5.50;;;4.18;;
23617;SDS011;18207;32.078;34.818;2022-12-13T01:05:46;5.95;;;4.18;;
23617;SDS011;18207;32.078;34.818;2022-12-13T01:08:39;4.60;;;3.92;;
23617;SDS011;18207;32.078;34.818;2022-12-13T01:11:12;4.35;;;3.90;;
23617;SDS011;18207;32.078;34.818;2022-12-13T01:13:43;5.35;;;3.97;;
23617;SDS011;18207;32.078;34.818;2022-12-13T01:16:14;5.03;;;4.20;;
23617;SDS011;18207;32.078;34.818;2022-12-13T01:18:45;5.88;;;4.10;;
23617;SDS011;18207;32.078;34.818;2022-12-13T01:21:15;5.57;;;4.07;;
23617;SDS011;18207;32.078;34.818;2022-12-13T01:23:49;6.35;;;4.45;;
23617;SDS011;18207;32.078;34.818;2022-12-13T01:26:21;5.85;;;4.47;;
23617;SDS011;18207;32.078;34.818;2022-12-13T01:28:51;4.38;;;3.97;;
23617;SDS011;18207;32.078;34.818;2022-12-13T01:31:22;4.50;;;4.03;;
23617;SDS011;18207;32.078;34.818;2022-12-13T01:33:53;6.22;;;4.10;;
23617;SDS011;18207;32.078;34.818;2022-12-13T01:36:23;4.88;;;4.00;;
23617;SDS011;18207;32.078;34.818;2022-12-13T01:38:55;5.82;;;3.85;;
23617;SDS011;18207;32.078;34.818;2022-12-13T01:41:40;5.45;;;4.13;;
23617;SDS011;18207;32.078;34.818;2022-12-13T01:47:28;4.05;;;3.65;;
23617;SDS011;18207;32.078;34.818;2022-12-13T01:50:07;5.50;;;3.60;;
23617;SDS011;18207;32.078;34.818;2022-12-13T01:52:43;4.95;;;3.85;;
23617;SDS011;18207;32.078;34.818;2022-12-13T01:55:17;4.60;;;3.90;;
23617;SDS011;18207;32.078;34.818;2022-12-13T01:57:50;4.85;;;3.85;;
23617;SDS011;18207;32.078;34.818;2022-12-13T02:00:23;5.07;;;4.30;;
23617;SDS011;18207;32.078;34.818;2022-12-13T02:02:55;6.25;;;4.03;;
23617;SDS011;18207;32.078;34.818;2022-12-13T02:05:29;6.20;;;3.80;;
23617;SDS011;18207;32.078;34.818;2022-12-13T02:08:05;6.15;;;3.85;;
23617;SDS011;18207;32.078;34.818;2022-12-13T02:10:41;4.25;;;3.58;;
23617;SDS011;18207;32.078;34.818;2022-12-13T02:13:13;4.05;;;3.60;;
23617;SDS011;18207;32.078;34.818;2022-12-13T02:15:44;4.80;;;3.78;;
23617;SDS011;18207;32.078;34.818;2022-12-13T02:18:30;5.22;;;4.10;;
23617;SDS011;18207;32.078;34.818;2022-12-13T02:21:21;4.43;;;3.50;;
23617;SDS011;18207;32.078;34.818;2022-12-13T02:24:14;4.28;;;3.30;;
23617;SDS011;18207;32.078;34.818;2022-12-13T02:30:30;2.60;;;2.40;;
23617;SDS011;18207;32.078;34.818;2022-12-13T02:36:11;2.42;;;2.17;;
23617;SDS011;18207;32.078;34.818;2022-12-13T02:38:53;2.25;;;1.95;;
23617;SDS011;18207;32.078;34.818;2022-12-13T02:41:32;3.35;;;2.20;;
23617;SDS011;18207;32.078;34.818;2022-12-13T02:44:10;3.30;;;2.05;;
23617;SDS011;18207;32.078;34.818;2022-12-13T02:46:51;2.30;;;2.10;;
23617;SDS011;18207;32.078;34.818;2022-12-13T02:49:28;2.17;;;1.98;;
23617;SDS011;18207;32.078;34.818;2022-12-13T02:52:05;2.33;;;2.13;;
23617;SDS011;18207;32.078;34.818;2022-12-13T02:54:48;2.78;;;1.80;;
23617;SDS011;18207;32.078;34.818;2022-12-13T03:00:08;2.83;;;1.80;;
23617;SDS011;18207;32.078;34.818;2022-12-13T03:02:47;2.20;;;2.00;;
23617;SDS011;18207;32.078;34.818;2022-12-13T03:05:37;2.83;;;1.83;;
23617;SDS011;18207;32.078;34.818;2022-12-13T03:08:36;3.60;;;1.70;;
23617;SDS011;18207;32.078;34.818;2022-12-13T03:11:21;2.50;;;1.88;;
23617;SDS011;18207;32.078;34.818;2022-12-13T03:14:15;2.28;;;1.77;;
23617;SDS011;18207;32.078;34.818;2022-12-13T03:16:56;2.33;;;1.73;;
23617;SDS011;18207;32.078;34.818;2022-12-13T03:19:32;2.20;;;2.00;;
23617;SDS011;18207;32.078;34.818;2022-12-13T03:22:04;2.10;;;1.90;;
23617;SDS011;18207;32.078;34.818;2022-12-13T03:24:35;2.20;;;2.00;;
23617;SDS011;18207;32.078;34.818;2022-12-13T03:27:06;2.63;;;1.80;;
23617;SDS011;18207;32.078;34.818;2022-12-13T03:29:36;2.00;;;1.80;;
23617;SDS011;18207;32.078;34.818;2022-12-13T03:32:07;3.03;;;1.85;;
23617;SDS011;18207;32.078;34.818;2022-12-13T03:34:39;1.88;;;1.73;;
23617;SDS011;18207;32.078;34.818;2022-12-13T03:37:14;3.28;;;2.03;;
23617;SDS011;18207;32.078;34.818;2022-12-13T03:39:44;2.10;;;1.90;;
23617;SDS011;18207;32.078;34.818;2022-12-13T03:42:14;2.47;;;1.77;;
23617;SDS011;18207;32.078;34.818;2022-12-13T03:44:45;2.75;;;1.70;;
23617;SDS011;18207;32.078;34.818;2022-12-13T03:47:16;3.67;;;1.80;;
23617;SDS011;18207;32.078;34.818;2022-12-13T03:49:49;2.63;;;2.20;;
23617;SDS011;18207;32.078;34.818;2022-12-13T03:52:21;2.15;;;1.90;;
23617;SDS011;18207;32.078;34.818;2022-12-13T03:54:52;2.30;;;1.90;;
23617;SDS011;18207;32.078;34.818;2022-12-13T03:57:23;2.13;;;1.92;;
23617;SDS011;18207;32.078;34.818;2022-12-13T03:59:55;2.88;;;1.80;;
23617;SDS011;18207;32.078;34.818;2022-12-13T04:02:25;2.20;;;2.00;;
23617;SDS011;18207;32.078;34.818;2022-12-13T04:04:59;2.38;;;2.13;;
23617;SDS011;18207;32.078;34.818;2022-12-13T04:07:29;2.28;;;2.08;;
23617;SDS011;18207;32.078;34.818;2022-12-13T04:10:00;2.10;;;1.95;;
23617;SDS011;18207;32.078;34.818;2022-12-13T04:12:51;3.25;;;1.92;;
23617;SDS011;18207;32.078;34.818;2022-12-13T04:15:38;4.20;;;1.98;;
23617;SDS011;18207;32.078;34.818;2022-12-13T04:18:15;2.05;;;1.85;;
23617;SDS011;18207;32.078;34.818;2022-12-13T04:20:48;1.85;;;1.75;;
23617;SDS011;18207;32.078;34.818;2022-12-13T04:23:18;1.80;;;1.65;;
23617;SDS011;18207;32.078;34.818;2022-12-13T04:25:49;3.42;;;1.92;;
23617;SDS011;18207;32.078;34.818;2022-12-13T04:28:19;2.00;;;1.77;;
23617;SDS011;18207;32.078;34.818;2022-12-13T04:30:50;2.20;;;2.00;;
23617;SDS011;18207;32.078;34.818;2022-12-13T04:33:21;3.97;;;1.80;;
23617;SDS011;18207;32.078;34.818;2022-12-13T04:35:53;2.30;;;1.90;;
23617;SDS011;18207;32.078;34.818;2022-12-13T04:38:23;2.45;;;1.92;;
23617;SDS011;18207;32.078;34.818;2022-12-13T04:41:02;2.20;;;2.00;;
23617;SDS011;18207;32.078;34.818;2022-12-13T04:43:35;6.20;;;1.85;;
23617;SDS011;18207;32.078;34.818;2022-12-13T04:46:05;1.88;;;1.73;;
23617;SDS011;18207;32.078;34.818;2022-12-13T04:48:36;3.15;;;2.08;;
23617;SDS011;18207;32.078;34.818;2022-12-13T04:51:08;2.28;;;2.08;;
23617;SDS011;18207;32.078;34.818;2022-12-13T04:53:39;2.95;;;2.20;;
23617;SDS011;18207;32.078;34.818;2022-12-13T04:56:09;3.05;;;1.80;;
23617;SDS011;18207;32.078;34.818;2022-12-13T04:58:39;2.67;;;1.95;;
23617;SDS011;18207;32.078;34.818;2022-12-13T05:01:11;2.65;;;1.77;;
23617;SDS011;18207;32.078;34.818;2022-12-13T05:03:41;2.55;;;2.00;;
23617;SDS011;18207;32.078;34.818;2022-12-13T05:06:14;3.08;;;2.50;;
23617;SDS011;18207;32.078;34.818;2022-12-13T05:08:53;3.67;;;1.92;;
23617;SDS011;18207;32.078;34.818;2022-12-13T05:11:26;2.28;;;2.05;;
23617;SDS011;18207;32.078;34.818;2022-12-13T05:14:01;2.50;;;1.90;;
23617;SDS011;18207;32.078;34.818;2022-12-13T05:16:31;2.95;;;2.15;;
23617;SDS011;18207;32.078;34.818;2022-12-13T05:19:02;3.20;;;1.80;;
23617;SDS011;18207;32.078;34.818;2022-12-13T05:21:34;3.03;;;2.13;;
23617;SDS011;18207;32.078;34.818;2022-12-13T05:24:05;2.22;;;1.95;;
23617;SDS011;18207;32.078;34.818;2022-12-13T05:26:36;3.15;;;1.90;;
23617;SDS011;18207;32.078;34.818;2022-12-13T05:29:06;2.28;;;2.00;;
23617;SDS011;18207;32.078;34.818;2022-12-13T05:31:38;2.60;;;2.00;;
23617;SDS011;18207;32.078;34.818;2022-12-13T05:34:08;3.38;;;2.10;;
23617;SDS011;18207;32.078;34.818;2022-12-13T05:36:42;3.50;;;2.30;;
23617;SDS011;18207;32.078;34.818;2022-12-13T05:39:12;4.05;;;2.05;;
23617;SDS011;18207;32.078;34.818;2022-12-13T05:41:55;2.30;;;2.10;;
23617;SDS011;18207;32.078;34.818;2022-12-13T05:44:28;2.97;;;2.08;;
23617;SDS011;18207;32.078;34.818;2022-12-13T05:46:59;3.25;;;2.20;;
23617;SDS011;18207;32.078;34.818;2022-12-13T05:49:30;3.40;;;2.40;;
23617;SDS011;18207;32.078;34.818;2022-12-13T05:52:02;2.70;;;2.20;;
23617;SDS011;18207;32.078;34.818;2022-12-13T05:54:32;3.88;;;2.50;;
23617;SDS011;18207;32.078;34.818;2022-12-13T05:57:08;3.78;;;2.22;;
23617;SDS011;18207;32.078;34.818;2022-12-13T05:59:38;2.20;;;1.88;;
23617;SDS011;18207;32.078;34.818;2022-12-13T06:02:09;5.18;;;2.42;;
23617;SDS011;18207;32.078;34.818;2022-12-13T06:04:46;2.92;;;2.30;;
23617;SDS011;18207;32.078;34.818;2022-12-13T06:07:18;3.67;;;2.35;;
23617;SDS011;18207;32.078;34.818;2022-12-13T06:09:48;3.08;;;2.22;;
23617;SDS011;18207;32.078;34.818;2022-12-13T06:12:36;2.92;;;2.15;;
23617;SDS011;18207;32.078;34.818;2022-12-13T06:15:09;3.50;;;2.33;;
23617;SDS011;18207;32.078;34.818;2022-12-13T06:17:48;3.97;;;2.33;;
23617;SDS011;18207;32.078;34.818;2022-12-13T06:20:17;3.22;;;2.10;;
23617;SDS011;18207;32.078;34.818;2022-12-13T06:22:52;3.45;;;2.53;;
23617;SDS011;18207;32.078;34.818;2022-12-13T06:25:22;3.70;;;2.67;;
23617;SDS011;18207;32.078;34.818;2022-12-13T06:27:57;3.67;;;2.50;;
23617;SDS011;18207;32.078;34.818;2022-12-13T06:30:28;3.03;;;2.45;;
23617;SDS011;18207;32.078;34.818;2022-12-13T06:33:00;2.95;;;2.63;;
23617;SDS011;18207;32.078;34.818;2022-12-13T06:35:30;3.47;;;2.58;;
23617;SDS011;18207;32.078;34.818;2022-12-13T06:38:08;3.47;;;2.80;;
23617;SDS011;18207;32.078;34.818;2022-12-13T06:41:04;3.03;;;2.50;;
23617;SDS011;18207;32.078;34.818;2022-12-13T06:43:37;4.13;;;2.83;;
23617;SDS011;18207;32.078;34.818;2022-12-13T06:46:11;4.25;;;2.65;;
23617;SDS011;18207;32.078;34.818;2022-12-13T06:48:42;3.65;;;2.75;;
23617;SDS011;18207;32.078;34.818;2022-12-13T06:51:13;3.58;;;2.60;;
23617;SDS011;18207;32.078;34.818;2022-12-13T06:53:50;6.05;;;2.90;;
23617;SDS011;18207;32.078;34.818;2022-12-13T06:56:26;3.28;;;2.78;;
23617;SDS011;18207;32.078;34.818;2022-12-13T06:58:58;4.43;;;2.53;;
23617;SDS011;18207;32.078;34.818;2022-12-13T07:01:29;3.53;;;2.53;;
23617;SDS011;18207;32.078;34.818;2022-12-13T07:04:03;4.70;;;2.83;;
23617;SDS011;18207;32.078;34.818;2022-12-13T07:06:55;4.60;;;2.78;;
23617;SDS011;18207;32.078;34.818;2022-12-13T07:09:29;5.15;;;2.90;;
23617;SDS011;18207;32.078;34.818;2022-12-13T07:12:00;4.43;;;2.95;;
23617;SDS011;18207;32.078;34.818;2022-12-13T07:14:31;5.28;;;3.10;;
23617;SDS011;18207;32.078;34.818;2022-12-13T07:17:06;5.35;;;3.17;;
23617;SDS011;18207;32.078;34.818;2022-12-13T07:19:37;4.95;;;2.90;;
23617;SDS011;18207;32.078;34.818;2022-12-13T07:22:08;5.63;;;3.05;;
23617;SDS011;18207;32.078;34.818;2022-12-13T07:24:39;3.35;;;3.05;;
23617;SDS011;18207;32.078;34.818;2022-12-13T07:27:10;5.03;;;3.08;;
23617;SDS011;18207;32.078;34.818;2022-12-13T07:29:40;3.85;;;3.30;;
23617;SDS011;18207;32.078;34.818;2022-12-13T07:32:10;4.95;;;3.30;;
23617;SDS011;18207;32.078;34.818;2022-12-13T07:34:41;6.68;;;3.53;;
23617;SDS011;18207;32.078;34.818;2022-12-13T07:37:11;4.35;;;2.95;;
23617;SDS011;18207;32.078;34.818;2022-12-13T07:39:58;6.22;;;3.65;;
23617;SDS011;18207;32.078;34.818;2022-12-13T07:42:30;6.43;;;3.40;;
23617;SDS011;18207;32.078;34.818;2022-12-13T07:45:01;4.30;;;3.30;;
23617;SDS011;18207;32.078;34.818;2022-12-13T07:47:32;4.40;;;3.30;;
23617;SDS011;18207;32.078;34.818;2022-12-13T07:50:02;5.28;;;3.50;;
23617;SDS011;18207;32.078;34.818;2022-12-13T07:52:51;4.00;;;3.13;;
23617;SDS011;18207;32.078;34.818;2022-12-13T07:55:24;3.63;;;3.13;;
23617;SDS011;18207;32.078;34.818;2022-12-13T07:58:03;4.22;;;3.40;;
23617;SDS011;18207;32.078;34.818;2022-12-13T08:00:35;5.28;;;3.55;;
23617;SDS011;18207;32.078;34.818;2022-12-13T08:03:12;5.15;;;3.13;;
23617;SDS011;18207;32.078;34.818;2022-12-13T08:05:57;4.15;;;3.38;;
23617;SDS011;18207;32.078;34.818;2022-12-13T08:08:29;4.53;;;3.33;;
23617;SDS011;18207;32.078;34.818;2022-12-13T08:11:03;4.72;;;3.20;;
23617;SDS011;18207;32.078;34.818;2022-12-13T08:13:36;4.72;;;3.45;;
23617;SDS011;18207;32.078;34.818;2022-12-13T08:16:08;4.57;;;3.55;;
23617;SDS011;18207;32.078;34.818;2022-12-13T08:18:53;5.63;;;3.58;;
23617;SDS011;18207;32.078;34.818;2022-12-13T08:21:29;5.80;;;3.88;;
23617;SDS011;18207;32.078;34.818;2022-12-13T08:24:22;4.93;;;3.63;;
23617;SDS011;18207;32.078;34.818;2022-12-13T08:26:56;4.40;;;3.55;;
23617;SDS011;18207;32.078;34.818;2022-12-13T08:29:29;5.35;;;3.38;;
23617;SDS011;18207;32.078;34.818;2022-12-13T08:32:03;4.65;;;3.42;;
23617;SDS011;18207;32.078;34.818;2022-12-13T08:34:35;5.55;;;3.67;;
23617;SDS011;18207;32.078;34.818;2022-12-13T08:37:07;6.28;;;3.58;;
23617;SDS011;18207;32.078;34.818;2022-12-13T08:39:38;5.85;;;4.10;;
23617;SDS011;18207;32.078;34.818;2022-12-13T08:42:13;7.32;;;4.25;;
23617;SDS011;18207;32.078;34.818;2022-12-13T08:44:46;6.18;;;3.88;;
23617;SDS011;18207;32.078;34.818;2022-12-13T08:47:18;5.43;;;3.75;;
23617;SDS011;18207;32.078;34.818;2022-12-13T08:49:52;5.05;;;3.78;;
23617;SDS011;18207;32.078;34.818;2022-12-13T08:52:28;6.97;;;4.32;;
23617;SDS011;18207;32.078;34.818;2022-12-13T08:55:07;5.63;;;4.13;;
23617;SDS011;18207;32.078;34.818;2022-12-13T08:57:40;6.18;;;4.15;;
23617;SDS011;18207;32.078;34.818;2022-12-13T09:00:12;5.78;;;4.10;;
23617;SDS011;18207;32.078;34.818;2022-12-13T09:02:45;6.65;;;4.22;;
23617;SDS011;18207;32.078;34.818;2022-12-13T09:05:16;5.18;;;4.13;;
23617;SDS011;18207;32.078;34.818;2022-12-13T09:08:00;5.30;;;3.90;;
23617;SDS011;18207;32.078;34.818;2022-12-13T09:10:56;9.88;;;4.72;;
23617;SDS011;18207;32.078;34.818;2022-12-13T09:13:49;4.43;;;4.00;;
23617;SDS011;18207;32.078;34.818;2022-12-13T09:16:27;4.85;;;3.83;;
23617;SDS011;18207;32.078;34.818;2022-12-13T09:19:02;5.40;;;4.05;;
23617;SDS011;18207;32.078;34.818;2022-12-13T09:21:51;4.95;;;4.07;;
23617;SDS011;18207;32.078;34.818;2022-12-13T09:24:28;4.47;;;3.58;;
23617;SDS011;18207;32.078;34.818;2022-12-13T09:27:02;3.65;;;3.30;;
23617;SDS011;18207;32.078;34.818;2022-12-13T09:29:36;3.85;;;3.47;;
23617;SDS011;18207;32.078;34.818;2022-12-13T09:32:07;6.32;;;4.10;;
23617;SDS011;18207;32.078;34.818;2022-12-13T09:34:38;5.63;;;3.80;;
23617;SDS011;18207;32.078;34.818;2022-12-13T09:37:11;5.72;;;3.85;;
23617;SDS011;18207;32.078;34.818;2022-12-13T09:39:48;5.93;;;3.90;;
23617;SDS011;18207;32.078;34.818;2022-12-13T09:42:21;4.00;;;3.60;;
23617;SDS011;18207;32.078;34.818;2022-12-13T09:44:58;6.43;;;4.03;;
23617;SDS011;18207;32.078;34.818;2022-12-13T09:47:53;7.88;;;3.60;;
23617;SDS011;18207;32.078;34.818;2022-12-13T09:50:28;4.30;;;3.80;;
23617;SDS011;18207;32.078;34.818;2022-12-13T09:53:05;4.25;;;3.75;;
23617;SDS011;18207;32.078;34.818;2022-12-13T09:55:56;4.28;;;3.17;;
23617;SDS011;18207;32.078;34.818;2022-12-13T09:58:36;4.03;;;3.63;;
23617;SDS011;18207;32.078;34.818;2022-12-13T10:01:09;4.05;;;3.65;;
23617;SDS011;18207;32.078;34.818;2022-12-13T10:03:50;3.45;;;3.15;;
23617;SDS011;18207;32.078;34.818;2022-12-13T10:06:36;5.10;;;3.80;;
23617;SDS011;18207;32.078;34.818;2022-12-13T10:09:08;4.20;;;3.20;;
23617;SDS011;18207;32.078;34.818;2022-12-13T10:11:45;4.75;;;3.55;;
23617;SDS011;18207;32.078;34.818;2022-12-13T10:14:18;4.90;;;4.10;;
23617;SDS011;18207;32.078;34.818;2022-12-13T10:16:59;4.50;;;3.80;;
23617;SDS011;18207;32.078;34.818;2022-12-13T10:19:35;3.50;;;2.92;;
23617;SDS011;18207;32.078;34.818;2022-12-13T10:22:11;4.15;;;3.20;;
23617;SDS011;18207;32.078;34.818;2022-12-13T10:24:47;3.63;;;3.33;;
23617;SDS011;18207;32.078;34.818;2022-12-13T10:27:24;4.60;;;3.78;;
23617;SDS011;18207;32.078;34.818;2022-12-13T10:30:10;4.57;;;3.65;;
23617;SDS011;18207;32.078;34.818;2022-12-13T10:32:56;4.07;;;3.70;;
23617;SDS011;18207;32.078;34.818;2022-12-13T10:35:29;3.97;;;3.47;;
23617;SDS011;18207;32.078;34.818;2022-12-13T10:38:02;5.93;;;3.88;;
23617;SDS011;18207;32.078;34.818;2022-12-13T10:40:58;3.65;;;3.35;;
23617;SDS011;18207;32.078;34.818;2022-12-13T10:43:29;5.82;;;4.50;;
23617;SDS011;18207;32.078;34.818;2022-12-13T10:46:03;5.18;;;4.28;;
23617;SDS011;18207;32.078;34.818;2022-12-13T10:48:52;7.00;;;4.97;;
23617;SDS011;18207;32.078;34.818;2022-12-13T10:51:23;5.10;;;4.13;;
23617;SDS011;18207;32.078;34.818;2022-12-13T10:53:54;5.50;;;4.45;;
23617;SDS011;18207;32.078;34.818;2022-12-13T10:56:31;6.20;;;4.20;;
23617;SDS011;18207;32.078;34.818;2022-12-13T10:59:22;5.43;;;4.25;;
23617;SDS011;18207;32.078;34.818;2022-12-13T11:02:01;4.68;;;4.18;;
23617;SDS011;18207;32.078;34.818;2022-12-13T11:05:16;5.53;;;4.10;;
23617;SDS011;18207;32.078;34.818;2022-12-13T11:07:54;4.47;;;4.07;;
23617;SDS011;18207;32.078;34.818;2022-12-13T11:10:40;4.22;;;3.83;;
23617;SDS011;18207;32.078;34.818;2022-12-13T11:13:20;4.63;;;4.15;;
23617;SDS011;18207;32.078;34.818;2022-12-13T11:16:04;5.90;;;4.18;;
23617;SDS011;18207;32.078;34.818;2022-12-13T11:18:52;6.05;;;4.13;;
23617;SDS011;18207;32.078;34.818;2022-12-13T11:21:28;4.20;;;3.75;;
23617;SDS011;18207;32.078;34.818;2022-12-13T11:24:02;4.10;;;3.70;;
23617;SDS011;18207;32.078;34.818;2022-12-13T11:26:37;3.83;;;3.47;;
23617;SDS011;18207;32.078;34.818;2022-12-13T11:29:25;6.50;;;4.22;;
23617;SDS011;18207;32.078;34.818;2022-12-13T11:32:12;4.78;;;3.83;;
23617;SDS011;18207;32.078;34.818;2022-12-13T11:34:54;4.30;;;3.90;;
23617;SDS011;18207;32.078;34.818;2022-12-13T11:37:44;3.88;;;3.03;;
23617;SDS011;18207;32.078;34.818;2022-12-13T11:40:29;3.40;;;3.10;;
23617;SDS011;18207;32.078;34.818;2022-12-13T11:43:04;3.70;;;3.00;;
23617;SDS011;18207;32.078;34.818;2022-12-13T11:45:49;3.67;;;3.30;;
23617;SDS011;18207;32.078;34.818;2022-12-13T11:48:29;3.63;;;3.20;;
23617;SDS011;18207;32.078;34.818;2022-12-13T11:51:12;3.97;;;3.17;;
23617;SDS011;18207;32.078;34.818;2022-12-13T11:53:53;3.92;;;3.40;;
23617;SDS011;18207;32.078;34.818;2022-12-13T11:56:29;3.92;;;3.15;;
23617;SDS011;18207;32.078;34.818;2022-12-13T11:59:08;3.95;;;3.20;;
23617;SDS011;18207;32.078;34.818;2022-12-13T12:02:10;3.33;;;3.00;;
23617;SDS011;18207;32.078;34.818;2022-12-13T12:04:47;3.05;;;2.85;;
23617;SDS011;18207;32.078;34.818;2022-12-13T12:07:27;3.00;;;2.70;;
23617;SDS011;18207;32.078;34.818;2022-12-13T12:10:29;3.45;;;2.40;;
23617;SDS011;18207;32.078;34.818;2022-12-13T12:13:13;2.40;;;2.25;;
23617;SDS011;18207;32.078;34.818;2022-12-13T12:15:51;2.30;;;2.10;;
23617;SDS011;18207;32.078;34.818;2022-12-13T12:18:34;2.40;;;2.20;;
23617;SDS011;18207;32.078;34.818;2022-12-13T12:21:07;2.97;;;2.20;;
23617;SDS011;18207;32.078;34.818;2022-12-13T12:24:16;2.53;;;2.33;;
23617;SDS011;18207;32.078;34.818;2022-12-13T12:26:59;3.13;;;2.30;;
23617;SDS011;18207;32.078;34.818;2022-12-13T12:29:55;2.88;;;2.20;;
23617;SDS011;18207;32.078;34.818;2022-12-13T12:32:53;2.35;;;2.00;;
23617;SDS011;18207;32.078;34.818;2022-12-13T12:35:43;1.95;;;1.77;;
23617;SDS011;18207;32.078;34.818;2022-12-13T12:38:51;2.03;;;1.92;;
23617;SDS011;18207;32.078;34.818;2022-12-13T12:45:39;2.85;;;2.65;;
23617;SDS011;18207;32.078;34.818;2022-12-13T12:48:29;3.63;;;2.53;;
23617;SDS011;18207;32.078;34.818;2022-12-13T12:51:29;2.67;;;2.47;;
23617;SDS011;18207;32.078;34.818;2022-12-13T12:54:14;2.67;;;2.47;;
23617;SDS011;18207;32.078;34.818;2022-12-13T12:57:04;2.72;;;2.55;;
23617;SDS011;18207;32.078;34.818;2022-12-13T12:59:52;2.65;;;2.45;;
23617;SDS011;18207;32.078;34.818;2022-12-13T13:02:37;2.78;;;2.40;;
23617;SDS011;18207;32.078;34.818;2022-12-13T13:05:17;3.08;;;2.22;;
23617;SDS011;18207;32.078;34.818;2022-12-13T13:07:54;2.67;;;2.47;;
23617;SDS011;18207;32.078;34.818;2022-12-13T13:10:37;2.88;;;2.67;;
23617;SDS011;18207;32.078;34.818;2022-12-13T13:13:42;2.63;;;2.25;;
23617;SDS011;18207;32.078;34.818;2022-12-13T13:16:31;2.40;;;2.20;;
23617;SDS011;18207;32.078;34.818;2022-12-13T13:22:28;2.60;;;2.40;;
23617;SDS011;18207;32.078;34.818;2022-12-13T13:25:17;2.35;;;2.15;;
23617;SDS011;18207;32.078;34.818;2022-12-13T13:28:01;2.38;;;2.17;;
23617;SDS011;18207;32.078;34.818;2022-12-13T13:30:34;6.65;;;2.42;;
23617;SDS011;18207;32.078;34.818;2022-12-13T13:33:40;2.40;;;2.20;;
23617;SDS011;18207;32.078;34.818;2022-12-13T13:39:18;2.95;;;2.28;;
23617;SDS011;18207;32.078;34.818;2022-12-13T13:42:23;2.60;;;2.40;;
23617;SDS011;18207;32.078;34.818;2022-12-13T13:45:16;2.58;;;2.17;;
23617;SDS011;18207;32.078;34.818;2022-12-13T13:51:13;2.35;;;2.15;;
23617;SDS011;18207;32.078;34.818;2022-12-13T14:05:23;2.75;;;2.03;;
23617;SDS011;18207;32.078;34.818;2022-12-13T14:22:38;2.20;;;2.00;;
23617;SDS011;18207;32.078;34.818;2022-12-13T14:25:24;2.20;;;2.08;;
23617;SDS011;18207;32.078;34.818;2022-12-13T14:28:20;2.30;;;2.20;;
23617;SDS011;18207;32.078;34.818;2022-12-13T14:31:04;2.58;;;2.38;;
23617;SDS011;18207;32.078;34.818;2022-12-13T14:33:48;4.65;;;2.20;;
23617;SDS011;18207;32.078;34.818;2022-12-13T14:36:26;3.10;;;2.50;;
23617;SDS011;18207;32.078;34.818;2022-12-13T14:39:03;2.40;;;2.20;;
23617;SDS011;18207;32.078;34.818;2022-12-13T14:41:53;2.58;;;2.38;;
23617;SDS011;18207;32.078;34.818;2022-12-13T14:44:27;2.42;;;2.22;;
23617;SDS011;18207;32.078;34.818;2022-12-13T14:47:00;3.40;;;2.20;;
23617;SDS011;18207;32.078;34.818;2022-12-13T14:49:35;2.50;;;2.30;;
23617;SDS011;18207;32.078;34.818;2022-12-13T14:52:15;2.60;;;2.40;;
23617;SDS011;18207;32.078;34.818;2022-12-13T14:54:53;2.50;;;2.30;;
23617;SDS011;18207;32.078;34.818;2022-12-13T14:57:28;2.50;;;2.30;;
23617;SDS011;18207;32.078;34.818;2022-12-13T15:00:18;2.60;;;2.40;;
23617;SDS011;18207;32.078;34.818;2022-12-13T15:02:54;2.58;;;2.38;;
23617;SDS011;18207;32.078;34.818;2022-12-13T15:05:28;2.47;;;2.28;;
23617;SDS011;18207;32.078;34.818;2022-12-13T15:08:09;2.58;;;2.38;;
23617;SDS011;18207;32.078;34.818;2022-12-13T15:10:45;3.13;;;2.40;;
23617;SDS011;18207;32.078;34.818;2022-12-13T15:13:23;2.45;;;2.20;;
23617;SDS011;18207;32.078;34.818;2022-12-13T15:16:02;2.63;;;2.33;;
23617;SDS011;18207;32.078;34.818;2022-12-13T15:18:37;3.72;;;2.55;;
23617;SDS011;18207;32.078;34.818;2022-12-13T15:21:17;2.60;;;2.40;;
23617;SDS011;18207;32.078;34.818;2022-12-13T15:23:54;2.45;;;2.25;;
23617;SDS011;18207;32.078;34.818;2022-12-13T15:26:26;3.63;;;2.72;;
23617;SDS011;18207;32.078;34.818;2022-12-13T15:29:02;2.92;;;2.65;;
23617;SDS011;18207;32.078;34.818;2022-12-13T15:31:36;2.53;;;2.33;;
23617;SDS011;18207;32.078;34.818;2022-12-13T15:34:20;2.88;;;2.65;;
23617;SDS011;18207;32.078;34.818;2022-12-13T15:37:00;2.78;;;2.58;;
23617;SDS011;18207;32.078;34.818;2022-12-13T15:39:53;2.50;;;2.30;;
23617;SDS011;18207;32.078;34.818;2022-12-13T15:42:30;3.25;;;2.35;;
23617;SDS011;18207;32.078;34.818;2022-12-13T15:45:16;2.70;;;2.50;;
23617;SDS011;18207;32.078;34.818;2022-12-13T15:47:51;2.35;;;2.13;;
23617;SDS011;18207;32.078;34.818;2022-12-13T15:50:30;2.53;;;2.33;;
23617;SDS011;18207;32.078;34.818;2022-12-13T15:53:16;2.80;;;2.60;;
23617;SDS011;18207;32.078;34.818;2022-12-13T15:55:54;2.70;;;2.50;;
23617;SDS011;18207;32.078;34.818;2022-12-13T15:58:30;2.63;;;2.42;;
23617;SDS011;18207;32.078;34.818;2022-12-13T16:01:21;3.25;;;2.50;;
23617;SDS011;18207;32.078;34.818;2022-12-13T16:03:55;3.28;;;2.63;;
23617;SDS011;18207;32.078;34.818;2022-12-13T16:06:30;2.83;;;2.58;;
23617;SDS011;18207;32.078;34.818;2022-12-13T16:09:02;2.58;;;2.38;;
23617;SDS011;18207;32.078;34.818;2022-12-13T16:11:36;2.88;;;2.60;;
23617;SDS011;18207;32.078;34.818;2022-12-13T16:17:20;2.60;;;2.40;;
23617;SDS011;18207;32.078;34.818;2022-12-13T16:19:55;3.15;;;2.50;;
23617;SDS011;18207;32.078;34.818;2022-12-13T16:22:34;3.10;;;2.85;;
23617;SDS011;18207;32.078;34.818;2022-12-13T16:25:05;3.17;;;2.83;;
23617;SDS011;18207;32.078;34.818;2022-12-13T16:27:40;3.03;;;2.72;;